createdAt,value
2018-11-01T00:00:11.064Z,1000.88
2018-11-01T00:01:11.173Z,1000.87
2018-11-01T00:02:11.090Z,1000.86
2018-11-01T00:03:11.110Z,1000.80
2018-11-01T00:04:11.126Z,1000.76
2018-11-01T00:05:11.145Z,1000.74
2018-11-01T00:06:11.166Z,1000.72
2018-11-01T00:07:11.186Z,1000.72
2018-11-01T00:08:11.192Z,1000.76
2018-11-01T00:09:11.219Z,1000.76
2018-11-01T00:10:11.232Z,1000.76
2018-11-01T00:11:11.298Z,1000.74
2018-11-01T00:12:11.285Z,1000.76
2018-11-01T00:13:11.313Z,1000.78
2018-11-01T00:14:11.291Z,1000.76
2018-11-01T00:15:11.314Z,1000.79
2018-11-01T00:16:11.333Z,1000.79
2018-11-01T00:17:11.341Z,1000.76
2018-11-01T00:18:11.364Z,1000.79
2018-11-01T00:19:11.379Z,1000.82
2018-11-01T00:20:11.391Z,1000.86
2018-11-01T00:21:11.407Z,1000.83
2018-11-01T00:22:11.434Z,1000.85
2018-11-01T00:23:11.440Z,1000.80
2018-11-01T00:24:11.467Z,1000.78
2018-11-01T00:25:11.475Z,1000.75
2018-11-01T00:26:11.487Z,1000.78
2018-11-01T00:27:11.514Z,1000.77
2018-11-01T00:28:11.529Z,1000.76
2018-11-01T00:29:11.540Z,1000.70
2018-11-01T00:30:11.559Z,1000.67
2018-11-01T00:31:11.569Z,1000.61
2018-11-01T00:32:11.595Z,1000.64
2018-11-01T00:33:11.602Z,1000.61
2018-11-01T00:34:11.620Z,1000.63
2018-11-01T00:35:11.631Z,1000.55
2018-11-01T00:36:11.655Z,1000.58
2018-11-01T00:37:11.669Z,1000.62
2018-11-01T00:38:11.699Z,1000.62
2018-11-01T00:39:11.713Z,1000.65
2018-11-01T00:40:11.713Z,1000.68
2018-11-01T00:41:11.745Z,1000.73
2018-11-01T00:42:11.753Z,1000.75
2018-11-01T00:43:11.772Z,1000.70
2018-11-01T00:44:11.786Z,1000.73
2018-11-01T00:45:11.804Z,1000.79
2018-11-01T00:46:11.821Z,1000.87
2018-11-01T00:47:11.837Z,1000.93
2018-11-01T00:48:11.862Z,1000.88
2018-11-01T00:49:11.873Z,1000.92
2018-11-01T00:50:11.889Z,1000.94
2018-11-01T00:51:11.917Z,1000.95
2018-11-01T00:52:11.912Z,1000.97
2018-11-01T00:53:11.945Z,1001.00
2018-11-01T00:54:11.945Z,1001.06
2018-11-01T00:55:11.969Z,1001.11
2018-11-01T00:56:11.985Z,1001.07
2018-11-01T00:57:12.116Z,1001.01
2018-11-01T00:58:12.048Z,1000.99
2018-11-01T00:59:12.049Z,1000.95
2018-11-01T01:00:12.049Z,1000.96
2018-11-01T01:01:12.065Z,1000.90
2018-11-01T01:02:12.084Z,1000.86
2018-11-01T01:03:12.102Z,1000.88
2018-11-01T01:04:12.120Z,1000.92
2018-11-01T01:05:12.127Z,1000.91
2018-11-01T01:06:12.151Z,1000.93
2018-11-01T01:07:12.161Z,1000.88
2018-11-01T01:08:12.177Z,1000.82
2018-11-01T01:09:12.210Z,1000.77
2018-11-01T01:10:12.218Z,1000.78
2018-11-01T01:11:12.245Z,1000.75
2018-11-01T01:12:12.249Z,1000.69
2018-11-01T01:13:12.274Z,1000.69
2018-11-01T01:14:12.292Z,1000.68
2018-11-01T01:15:12.299Z,1000.64
2018-11-01T01:16:12.317Z,1000.55
2018-11-01T01:17:12.330Z,1000.55
2018-11-01T01:18:12.349Z,1000.52
2018-11-01T01:19:12.369Z,1000.53
2018-11-01T01:20:12.387Z,1000.47
2018-11-01T01:21:12.396Z,1000.45
2018-11-01T01:22:12.427Z,1000.41
2018-11-01T01:23:12.436Z,1000.38
2018-11-01T01:24:12.462Z,1000.40
2018-11-01T01:25:12.579Z,1000.40
2018-11-01T01:26:12.481Z,1000.39
2018-11-01T01:27:12.495Z,1000.41
2018-11-01T01:28:12.513Z,1000.46
2018-11-01T01:29:12.526Z,1000.49
2018-11-01T01:30:12.556Z,1000.50
2018-11-01T01:31:12.555Z,1000.48
2018-11-01T01:32:12.579Z,1000.50
2018-11-01T01:33:12.602Z,1000.48
2018-11-01T01:34:12.630Z,1000.41
2018-11-01T01:35:12.643Z,1000.42
2018-11-01T01:36:12.649Z,1000.41
2018-11-01T01:37:12.653Z,1000.45
2018-11-01T01:38:12.688Z,1000.46
2018-11-01T01:39:12.693Z,1000.49
2018-11-01T01:40:12.714Z,1000.56
2018-11-01T01:41:12.729Z,1000.57
2018-11-01T01:42:12.759Z,1000.60
2018-11-01T01:43:12.757Z,1000.55
2018-11-01T01:44:12.783Z,1000.54
2018-11-01T01:45:12.795Z,1000.52
2018-11-01T01:46:12.812Z,1000.49
2018-11-01T01:47:12.822Z,1000.50
2018-11-01T01:48:12.844Z,1000.46
2018-11-01T01:49:12.852Z,1000.46
2018-11-01T01:50:12.937Z,1000.49
2018-11-01T01:51:12.895Z,1000.51
2018-11-01T01:52:12.905Z,1000.51
2018-11-01T01:53:12.954Z,1000.47
2018-11-01T01:54:12.944Z,1000.43
2018-11-01T01:55:12.994Z,1000.37
2018-11-01T01:56:12.991Z,1000.36
2018-11-01T01:57:12.996Z,1000.32
2018-11-01T01:58:13.007Z,1000.32
2018-11-01T01:59:13.028Z,1000.29
2018-11-01T02:00:13.034Z,1000.25
2018-11-01T02:01:13.056Z,1000.28
2018-11-01T02:02:13.074Z,1000.30
2018-11-01T02:03:13.080Z,1000.35
2018-11-01T02:04:13.105Z,1000.43
2018-11-01T02:05:13.122Z,1000.44
2018-11-01T02:06:13.163Z,1000.43
2018-11-01T02:07:13.157Z,1000.42
2018-11-01T02:08:13.177Z,1000.45
2018-11-01T02:09:13.188Z,1000.47
2018-11-01T02:10:13.215Z,1000.40
2018-11-01T02:11:13.253Z,1000.38
2018-11-01T02:12:13.235Z,1000.35
2018-11-01T02:13:13.255Z,1000.26
2018-11-01T02:14:13.269Z,1000.21
2018-11-01T02:15:13.284Z,1000.14
2018-11-01T02:16:13.332Z,1000.08
2018-11-01T02:17:13.326Z,1000.07
2018-11-01T02:18:15.337Z,1000.02
2018-11-01T02:19:13.371Z,1000.04
2018-11-01T02:20:13.393Z,1000.00
2018-11-01T02:21:13.384Z,1000.00
2018-11-01T02:22:13.401Z,1000.01
2018-11-01T02:23:13.494Z,999.99
2018-11-01T02:24:13.444Z,999.94
2018-11-01T02:25:13.450Z,999.93
2018-11-01T02:26:13.476Z,999.94
2018-11-01T02:27:13.491Z,999.90
2018-11-01T02:28:13.493Z,999.89
2018-11-01T02:29:13.520Z,999.89
2018-11-01T02:30:13.530Z,999.86
2018-11-01T02:31:13.549Z,999.88
2018-11-01T02:32:13.566Z,999.87
2018-11-01T02:33:13.578Z,999.83
2018-11-01T02:34:13.655Z,999.75
2018-11-01T02:35:13.609Z,999.73
2018-11-01T02:36:13.622Z,999.71
2018-11-01T02:37:13.639Z,999.68
2018-11-01T02:38:13.750Z,999.76
2018-11-01T02:39:13.681Z,999.81
2018-11-01T02:40:13.691Z,999.83
2018-11-01T02:41:13.723Z,999.83
2018-11-01T02:42:13.733Z,999.83
2018-11-01T02:43:13.749Z,999.79
2018-11-01T02:44:13.764Z,999.73
2018-11-01T02:45:13.793Z,999.74
2018-11-01T02:46:13.794Z,999.75
2018-11-01T02:47:13.804Z,999.79
2018-11-01T02:48:13.823Z,999.83
2018-11-01T02:49:13.844Z,999.83
2018-11-01T02:50:13.855Z,999.78
2018-11-01T02:51:13.955Z,999.74
2018-11-01T02:52:13.885Z,999.67
2018-11-01T02:53:13.910Z,999.69
2018-11-01T02:55:13.943Z,999.68
2018-11-01T02:56:13.960Z,999.65
2018-11-01T02:57:13.968Z,999.66
2018-11-01T02:58:13.994Z,999.65
2018-11-01T02:59:14.007Z,999.66
2018-11-01T03:00:14.020Z,999.60
2018-11-01T03:01:14.037Z,999.61
2018-11-01T03:02:14.059Z,999.62
2018-11-01T03:03:14.090Z,999.59
2018-11-01T03:04:14.089Z,999.59
2018-11-01T03:05:14.100Z,999.59
2018-11-01T03:06:14.175Z,999.56
2018-11-01T03:07:14.140Z,999.58
2018-11-01T03:08:14.160Z,999.53
2018-11-01T03:09:14.165Z,999.51
2018-11-01T03:10:14.187Z,999.47
2018-11-01T03:11:14.204Z,999.47
2018-11-01T03:12:14.222Z,999.51
2018-11-01T03:13:14.226Z,999.52
2018-11-01T03:14:14.241Z,999.56
2018-11-01T03:15:14.267Z,999.59
2018-11-01T03:16:14.288Z,999.69
2018-11-01T03:17:14.373Z,999.66
2018-11-01T03:18:14.319Z,999.68
2018-11-01T03:19:14.396Z,999.65
2018-11-01T03:20:14.348Z,999.65
2018-11-01T03:21:14.372Z,999.68
2018-11-01T03:22:14.372Z,999.71
2018-11-01T03:23:14.414Z,999.72
2018-11-01T03:24:14.399Z,999.78
2018-11-01T03:25:14.424Z,999.80
2018-11-01T03:26:14.493Z,999.84
2018-11-01T03:27:14.463Z,999.84
2018-11-01T03:28:14.471Z,999.88
2018-11-01T03:29:14.487Z,999.84
2018-11-01T03:30:14.721Z,999.85
2018-11-01T03:31:14.516Z,999.90
2018-11-01T03:32:14.601Z,999.91
2018-11-01T03:33:14.554Z,999.90
2018-11-01T03:34:14.628Z,999.92
2018-11-01T03:35:14.613Z,999.91
2018-11-01T03:36:14.603Z,999.91
2018-11-01T03:37:14.614Z,999.84
2018-11-01T03:38:14.713Z,999.91
2018-11-01T03:39:14.648Z,999.87
2018-11-01T03:40:14.663Z,999.87
2018-11-01T03:41:14.677Z,999.84
2018-11-01T03:42:14.695Z,999.88
2018-11-01T03:43:14.717Z,999.79
2018-11-01T03:44:14.721Z,999.71
2018-11-01T03:45:14.738Z,999.72
2018-11-01T03:46:14.756Z,999.65
2018-11-01T03:47:14.796Z,999.66
2018-11-01T03:48:14.790Z,999.63
2018-11-01T03:49:14.826Z,999.64
2018-11-01T03:50:14.821Z,999.63
2018-11-01T03:51:14.837Z,999.63
2018-11-01T03:52:14.859Z,999.66
2018-11-01T03:53:14.873Z,999.57
2018-11-01T03:54:14.896Z,999.56
2018-11-01T03:55:14.906Z,999.47
2018-11-01T03:56:14.928Z,999.44
2018-11-01T03:57:14.945Z,999.44
2018-11-01T03:58:14.948Z,999.43
2018-11-01T03:59:14.966Z,999.45
2018-11-01T04:00:15.061Z,999.42
2018-11-01T04:01:14.997Z,999.45
2018-11-01T04:02:15.012Z,999.48
2018-11-01T04:03:15.033Z,999.47
2018-11-01T04:04:15.064Z,999.43
2018-11-01T04:05:15.062Z,999.44
2018-11-01T04:06:15.112Z,999.42
2018-11-01T04:07:15.095Z,999.37
2018-11-01T04:08:15.115Z,999.34
2018-11-01T04:09:15.123Z,999.32
2018-11-01T04:10:15.143Z,999.32
2018-11-01T04:11:15.158Z,999.29
2018-11-01T04:12:15.186Z,999.26
2018-11-01T04:13:15.192Z,999.28
2018-11-01T04:14:15.202Z,999.23
2018-11-01T04:15:15.293Z,999.20
2018-11-01T04:16:15.238Z,999.23
2018-11-01T04:17:15.328Z,999.26
2018-11-01T04:18:15.266Z,999.22
2018-11-01T04:19:15.300Z,999.26
2018-11-01T04:20:15.318Z,999.31
2018-11-01T04:21:15.321Z,999.33
2018-11-01T04:22:15.332Z,999.31
2018-11-01T04:23:15.425Z,999.32
2018-11-01T04:24:15.380Z,999.30
2018-11-01T04:25:15.408Z,999.29
2018-11-01T04:26:15.403Z,999.30
2018-11-01T04:27:15.413Z,999.33
2018-11-01T04:28:15.496Z,999.30
2018-11-01T04:29:15.450Z,999.36
2018-11-01T04:30:15.464Z,999.39
2018-11-01T04:31:15.478Z,999.47
2018-11-01T04:32:15.498Z,999.49
2018-11-01T04:33:15.575Z,999.52
2018-11-01T04:34:15.527Z,999.54
2018-11-01T04:35:15.542Z,999.55
2018-11-01T04:36:15.572Z,999.53
2018-11-01T04:37:15.580Z,999.53
2018-11-01T04:38:15.596Z,999.56
2018-11-01T04:39:15.607Z,999.59
2018-11-01T04:40:15.627Z,999.59
2018-11-01T04:41:15.630Z,999.60
2018-11-01T04:42:15.646Z,999.61
2018-11-01T04:43:15.727Z,999.63
2018-11-01T04:44:15.705Z,999.61
2018-11-01T04:45:15.767Z,999.61
2018-11-01T04:46:15.772Z,999.56
2018-11-01T04:47:15.788Z,999.59
2018-11-01T04:48:15.750Z,999.57
2018-11-01T04:49:15.770Z,999.55
2018-11-01T04:50:15.773Z,999.53
2018-11-01T04:51:15.806Z,999.43
2018-11-01T04:52:15.803Z,999.41
2018-11-01T04:53:15.847Z,999.39
2018-11-01T04:54:15.873Z,999.37
2018-11-01T04:55:15.857Z,999.36
2018-11-01T04:56:15.866Z,999.32
2018-11-01T04:57:15.891Z,999.29
2018-11-01T04:58:15.907Z,999.27
2018-11-01T04:59:15.920Z,999.29
2018-11-01T05:00:15.927Z,999.31
2018-11-01T05:01:15.955Z,999.27
2018-11-01T05:02:15.979Z,999.24
2018-11-01T05:03:15.984Z,999.25
2018-11-01T05:04:16.005Z,999.20
2018-11-01T05:05:16.101Z,999.10
2018-11-01T05:06:16.029Z,999.09
2018-11-01T05:07:16.038Z,999.04
2018-11-01T05:08:16.061Z,999.01
2018-11-01T05:09:16.082Z,999.08
2018-11-01T05:10:16.098Z,999.12
2018-11-01T05:11:16.108Z,999.16
2018-11-01T05:12:16.134Z,999.12
2018-11-01T05:13:16.256Z,999.15
2018-11-01T05:14:16.158Z,999.15
2018-11-01T05:15:16.179Z,999.20
2018-11-01T05:16:16.186Z,999.19
2018-11-01T05:17:16.205Z,999.18
2018-11-01T05:18:16.214Z,999.24
2018-11-01T05:19:16.238Z,999.26
2018-11-01T05:20:16.260Z,999.26
2018-11-01T05:21:16.260Z,999.22
2018-11-01T05:22:16.278Z,999.19
2018-11-01T05:23:16.300Z,999.19
2018-11-01T05:24:16.307Z,999.25
2018-11-01T05:25:16.329Z,999.27
2018-11-01T05:26:16.350Z,999.26
2018-11-01T05:27:16.361Z,999.29
2018-11-01T05:28:16.380Z,999.30
2018-11-01T05:29:16.442Z,999.36
2018-11-01T05:30:16.483Z,999.36
2018-11-01T05:31:16.421Z,999.34
2018-11-01T05:32:16.443Z,999.31
2018-11-01T05:33:16.459Z,999.26
2018-11-01T05:34:16.512Z,999.29
2018-11-01T05:35:16.489Z,999.32
2018-11-01T05:36:16.500Z,999.35
2018-11-01T05:37:16.537Z,999.40
2018-11-01T05:38:16.536Z,999.38
2018-11-01T05:39:16.549Z,999.34
2018-11-01T05:40:16.563Z,999.40
2018-11-01T05:42:16.595Z,999.36
2018-11-01T05:43:16.607Z,999.31
2018-11-01T05:44:16.629Z,999.28
2018-11-01T05:45:16.643Z,999.24
2018-11-01T05:46:16.667Z,999.21
2018-11-01T05:47:16.671Z,999.16
2018-11-01T05:48:16.684Z,999.08
2018-11-01T05:49:16.711Z,999.06
2018-11-01T05:50:16.716Z,999.03
2018-11-01T05:51:16.734Z,999.07
2018-11-01T05:52:16.748Z,999.04
2018-11-01T05:53:16.767Z,999.10
2018-11-01T05:54:16.981Z,999.12
2018-11-01T05:55:16.795Z,999.14
2018-11-01T05:56:16.823Z,999.17
2018-11-01T05:57:16.834Z,999.19
2018-11-01T05:58:16.855Z,999.20
2018-11-01T05:59:16.860Z,999.25
2018-11-01T06:00:16.893Z,999.32
2018-11-01T06:01:16.905Z,999.32
2018-11-01T06:02:16.910Z,999.33
2018-11-01T06:03:16.924Z,999.30
2018-11-01T06:04:16.935Z,999.31
2018-11-01T06:05:16.946Z,999.33
2018-11-01T06:06:16.965Z,999.32
2018-11-01T06:07:16.987Z,999.31
2018-11-01T06:08:17.003Z,999.34
2018-11-01T06:09:17.062Z,999.36
2018-11-01T06:10:17.036Z,999.41
2018-11-01T06:11:17.123Z,999.49
2018-11-01T06:12:17.132Z,999.53
2018-11-01T06:13:17.104Z,999.53
2018-11-01T06:14:17.094Z,999.56
2018-11-01T06:15:17.115Z,999.55
2018-11-01T06:16:17.127Z,999.59
2018-11-01T06:17:17.135Z,999.61
2018-11-01T06:18:17.163Z,999.67
2018-11-01T06:19:17.174Z,999.66
2018-11-01T06:20:17.197Z,999.72
2018-11-01T06:21:17.201Z,999.63
2018-11-01T06:22:17.214Z,999.51
2018-11-01T06:23:17.234Z,999.50
2018-11-01T06:24:17.254Z,999.46
2018-11-01T06:25:17.271Z,999.44
2018-11-01T06:26:17.283Z,999.45
2018-11-01T06:27:17.305Z,999.43
2018-11-01T06:28:17.320Z,999.46
2018-11-01T06:29:17.335Z,999.51
2018-11-01T06:30:17.384Z,999.52
2018-11-01T06:31:17.361Z,999.54
2018-11-01T06:32:17.378Z,999.57
2018-11-01T06:33:17.412Z,999.60
2018-11-01T06:34:17.411Z,999.55
2018-11-01T06:35:17.423Z,999.54
2018-11-01T06:37:17.454Z,999.51
2018-11-01T06:38:17.469Z,999.54
2018-11-01T06:39:17.509Z,999.49
2018-11-01T06:40:17.499Z,999.47
2018-11-01T06:41:17.516Z,999.45
2018-11-01T06:42:17.532Z,999.43
2018-11-01T06:43:17.550Z,999.43
2018-11-01T06:44:17.571Z,999.46
2018-11-01T06:45:17.606Z,999.41
2018-11-01T06:46:17.592Z,999.34
2018-11-01T06:47:17.612Z,999.34
2018-11-01T06:48:17.630Z,999.35
2018-11-01T06:49:17.659Z,999.37
2018-11-01T06:50:17.677Z,999.40
2018-11-01T06:51:17.684Z,999.43
2018-11-01T06:52:17.703Z,999.42
2018-11-01T06:53:17.703Z,999.42
2018-11-01T06:54:17.719Z,999.41
2018-11-01T06:55:17.734Z,999.35
2018-11-01T06:56:17.795Z,999.28
2018-11-01T06:57:17.786Z,999.28
2018-11-01T06:58:17.828Z,999.27
2018-11-01T06:59:18.007Z,999.24
2018-11-01T07:00:17.820Z,999.22
2018-11-01T07:01:17.828Z,999.16
2018-11-01T07:02:17.839Z,999.17
2018-11-01T07:03:17.867Z,999.16
2018-11-01T07:04:17.875Z,999.14
2018-11-01T07:05:17.924Z,999.17
2018-11-01T07:06:17.943Z,999.15
2018-11-01T07:07:17.929Z,999.17
2018-11-01T07:08:17.945Z,999.22
2018-11-01T07:09:17.955Z,999.32
2018-11-01T07:10:17.968Z,999.36
2018-11-01T07:11:18.008Z,999.41
2018-11-01T07:12:18.013Z,999.44
2018-11-01T07:13:18.016Z,999.43
2018-11-01T07:14:18.036Z,999.44
2018-11-01T07:15:18.045Z,999.46
2018-11-01T07:16:18.058Z,999.44
2018-11-01T07:17:18.195Z,999.42
2018-11-01T07:18:18.095Z,999.44
2018-11-01T07:19:18.121Z,999.48
2018-11-01T07:20:18.120Z,999.57
2018-11-01T07:21:18.149Z,999.56
2018-11-01T07:22:18.172Z,999.62
2018-11-01T07:23:18.177Z,999.55
2018-11-01T07:24:18.277Z,999.56
2018-11-01T07:25:18.216Z,999.53
2018-11-01T07:26:18.343Z,999.52
2018-11-01T07:27:18.224Z,999.55
2018-11-01T07:28:18.269Z,999.54
2018-11-01T07:29:18.270Z,999.52
2018-11-01T07:30:18.284Z,999.51
2018-11-01T07:31:18.299Z,999.49
2018-11-01T07:32:18.372Z,999.50
2018-11-01T07:33:18.345Z,999.45
2018-11-01T07:34:18.345Z,999.45
2018-11-01T07:35:18.555Z,999.49
2018-11-01T07:36:18.372Z,999.52
2018-11-01T07:37:18.395Z,999.46
2018-11-01T07:38:18.417Z,999.53
2018-11-01T07:39:18.419Z,999.49
2018-11-01T07:40:18.438Z,999.43
2018-11-01T07:41:18.467Z,999.46
2018-11-01T07:42:18.475Z,999.42
2018-11-01T07:43:18.479Z,999.45
2018-11-01T07:44:18.497Z,999.38
2018-11-01T07:45:18.514Z,999.38
2018-11-01T07:46:18.532Z,999.40
2018-11-01T07:47:18.549Z,999.39
2018-11-01T07:48:18.563Z,999.39
2018-11-01T07:49:18.581Z,999.45
2018-11-01T07:50:18.597Z,999.45
2018-11-01T07:51:18.618Z,999.50
2018-11-01T07:52:18.728Z,999.49
2018-11-01T07:53:18.641Z,999.58
2018-11-01T07:54:18.663Z,999.55
2018-11-01T07:55:18.665Z,999.56
2018-11-01T07:56:18.689Z,999.60
2018-11-01T07:57:18.708Z,999.61
2018-11-01T07:58:18.774Z,999.62
2018-11-01T07:59:18.736Z,999.66
2018-11-01T08:00:18.750Z,999.65
2018-11-01T08:01:18.763Z,999.67
2018-11-01T08:02:18.780Z,999.67
2018-11-01T08:03:18.795Z,999.75
2018-11-01T08:04:18.817Z,999.76
2018-11-01T08:05:18.838Z,999.77
2018-11-01T08:06:18.847Z,999.79
2018-11-01T08:07:18.861Z,999.81
2018-11-01T08:08:18.920Z,999.80
2018-11-01T08:09:18.925Z,999.82
2018-11-01T08:10:18.911Z,999.82
2018-11-01T08:11:18.920Z,999.84
2018-11-01T08:12:18.945Z,999.83
2018-11-01T08:13:18.950Z,999.88
2018-11-01T08:14:18.973Z,999.88
2018-11-01T08:15:18.984Z,999.92
2018-11-01T08:16:18.997Z,999.94
2018-11-01T08:17:19.011Z,999.92
2018-11-01T08:18:19.030Z,999.96
2018-11-01T08:19:19.060Z,999.97
2018-11-01T08:20:19.524Z,999.96
2018-11-01T08:21:19.220Z,1000.00
2018-11-01T08:22:19.094Z,1000.07
2018-11-01T08:23:19.144Z,1000.18
2018-11-01T08:24:19.121Z,1000.28
2018-11-01T08:25:19.132Z,1000.34
2018-11-01T08:26:19.144Z,1000.38
2018-11-01T08:27:19.183Z,1000.36
2018-11-01T08:28:19.196Z,1000.33
2018-11-01T08:29:19.226Z,1000.31
2018-11-01T08:30:19.212Z,1000.29
2018-11-01T08:31:19.246Z,1000.25
2018-11-01T08:32:19.249Z,1000.22
2018-11-01T08:33:19.253Z,1000.18
2018-11-01T08:34:19.266Z,1000.19
2018-11-01T08:35:19.289Z,1000.23
2018-11-01T08:36:19.305Z,1000.18
2018-11-01T08:37:19.317Z,1000.19
2018-11-01T08:38:19.340Z,1000.19
2018-11-01T08:39:19.357Z,1000.24
2018-11-01T08:40:19.362Z,1000.26
2018-11-01T08:41:19.381Z,1000.20
2018-11-01T08:42:19.394Z,1000.19
2018-11-01T08:43:19.409Z,1000.25
2018-11-01T08:44:19.434Z,1000.25
2018-11-01T08:45:19.442Z,1000.30
2018-11-01T08:46:19.459Z,1000.35
2018-11-01T08:47:19.473Z,1000.42
2018-11-01T08:48:19.546Z,1000.45
2018-11-01T08:49:19.555Z,1000.55
2018-11-01T08:50:19.580Z,1000.66
2018-11-01T08:51:19.570Z,1000.75
2018-11-01T08:52:19.555Z,1000.78
2018-11-01T08:53:19.562Z,1000.82
2018-11-01T08:54:19.590Z,1000.81
2018-11-01T08:55:19.606Z,1000.81
2018-11-01T08:56:19.614Z,1000.86
2018-11-01T08:57:19.635Z,1000.87
2018-11-01T08:58:19.645Z,1000.88
2018-11-01T08:59:19.670Z,1000.77
2018-11-01T09:00:19.675Z,1000.74
2018-11-01T09:01:19.695Z,1000.65
2018-11-01T09:02:19.703Z,1000.71
2018-11-01T09:03:19.731Z,1000.71
2018-11-01T09:04:19.884Z,1000.72
2018-11-01T09:05:19.769Z,1000.79
2018-11-01T09:06:19.769Z,1000.78
2018-11-01T09:07:19.844Z,1000.82
2018-11-01T09:08:19.796Z,1000.76
2018-11-01T09:09:19.816Z,1000.67
2018-11-01T09:10:19.857Z,1000.59
2018-11-01T09:11:19.850Z,1000.65
2018-11-01T09:12:19.860Z,1000.75
2018-11-01T09:13:19.948Z,1000.94
2018-11-01T09:14:19.905Z,1001.13
2018-11-01T09:15:19.913Z,1001.28
2018-11-01T09:16:19.922Z,1001.29
2018-11-01T09:17:19.931Z,1001.23
2018-11-01T09:18:20.035Z,1001.12
2018-11-01T09:19:20.039Z,1000.98
2018-11-01T09:20:19.985Z,1000.96
2018-11-01T09:21:20.011Z,1000.89
2018-11-01T09:22:20.015Z,1000.87
2018-11-01T09:23:20.032Z,1000.79
2018-11-01T09:24:20.055Z,1000.74
2018-11-01T09:25:20.072Z,1000.73
2018-11-01T09:26:20.085Z,1000.76
2018-11-01T09:27:20.199Z,1000.72
2018-11-01T09:28:20.121Z,1000.66
2018-11-01T09:29:20.122Z,1000.56
2018-11-01T09:30:20.140Z,1000.57
2018-11-01T09:31:20.159Z,1000.70
2018-11-01T09:32:20.180Z,1000.84
2018-11-01T09:33:20.244Z,1000.96
2018-11-01T09:34:20.228Z,1000.95
2018-11-01T09:35:20.309Z,1001.04
2018-11-01T09:36:20.237Z,1001.11
2018-11-01T09:37:20.244Z,1001.23
2018-11-01T09:38:20.270Z,1001.30
2018-11-01T09:39:20.287Z,1001.35
2018-11-01T09:40:20.292Z,1001.33
2018-11-01T09:41:20.313Z,1001.28
2018-11-01T09:42:20.326Z,1001.18
2018-11-01T09:43:20.345Z,1001.17
2018-11-01T09:44:20.365Z,1001.17
2018-11-01T09:45:20.370Z,1001.14
2018-11-01T09:46:20.616Z,1001.23
2018-11-01T09:47:20.820Z,1001.24
2018-11-01T09:48:20.421Z,1001.22
2018-11-01T09:49:20.445Z,1001.18
2018-11-01T09:50:20.456Z,1001.13
2018-11-01T09:51:20.468Z,1001.07
2018-11-01T09:52:20.491Z,1000.97
2018-11-01T09:53:20.538Z,1000.96
2018-11-01T09:54:20.521Z,1000.92
2018-11-01T09:55:20.553Z,1000.83
2018-11-01T09:56:20.601Z,1000.84
2018-11-01T09:57:20.566Z,1000.85
2018-11-01T09:58:20.605Z,1000.85
2018-11-01T09:59:20.596Z,1000.87
2018-11-01T10:00:20.612Z,1000.89
2018-11-01T10:01:20.614Z,1000.80
2018-11-01T10:02:20.637Z,1000.73
2018-11-01T10:03:20.663Z,1000.66
2018-11-01T10:04:20.676Z,1000.68
2018-11-01T10:05:20.683Z,1000.66
2018-11-01T10:06:20.715Z,1000.73
2018-11-01T10:07:20.726Z,1000.72
2018-11-01T10:08:20.737Z,1000.70
2018-11-01T10:09:20.759Z,1000.67
2018-11-01T10:10:20.783Z,1000.60
2018-11-01T10:11:20.784Z,1000.63
2018-11-01T10:12:20.822Z,1000.63
2018-11-01T10:13:20.809Z,1000.61
2018-11-01T10:14:20.821Z,1000.56
2018-11-01T10:15:20.991Z,1000.52
2018-11-01T10:16:20.999Z,1000.53
2018-11-01T10:17:21.276Z,1000.54
2018-11-01T10:18:21.298Z,1000.53
2018-11-01T10:19:20.913Z,1000.56
2018-11-01T10:20:20.926Z,1000.52
2018-11-01T10:21:21.095Z,1000.41
2018-11-01T10:22:21.062Z,1000.30
2018-11-01T10:23:20.985Z,1000.24
2018-11-01T10:24:20.987Z,1000.18
2018-11-01T10:25:21.070Z,1000.18
2018-11-01T10:26:21.034Z,1000.24
2018-11-01T10:27:21.053Z,1000.33
2018-11-01T10:28:21.052Z,1000.37
2018-11-01T10:29:21.073Z,1000.40
2018-11-01T10:30:21.085Z,1000.40
2018-11-01T10:31:21.198Z,1000.32
2018-11-01T10:32:21.106Z,1000.30
2018-11-01T10:33:21.120Z,1000.25
2018-11-01T10:34:21.140Z,1000.26
2018-11-01T10:35:21.159Z,1000.32
2018-11-01T10:36:21.211Z,1000.34
2018-11-01T10:37:21.183Z,1000.38
2018-11-01T10:38:21.213Z,1000.36
2018-11-01T10:39:21.234Z,1000.40
2018-11-01T10:40:21.242Z,1000.28
2018-11-01T10:41:21.253Z,1000.22
2018-11-01T10:42:21.284Z,1000.16
2018-11-01T10:43:21.461Z,1000.10
2018-11-01T10:44:21.317Z,1000.01
2018-11-01T10:45:21.318Z,999.93
2018-11-01T10:46:21.330Z,999.89
2018-11-01T10:47:21.362Z,999.88
2018-11-01T10:48:21.578Z,999.83
2018-11-01T10:49:21.404Z,999.89
2018-11-01T10:50:21.419Z,999.88
2018-11-01T10:51:21.419Z,999.87
2018-11-01T10:52:21.448Z,999.90
2018-11-01T10:53:21.450Z,999.87
2018-11-01T10:54:21.533Z,999.89
2018-11-01T10:55:21.504Z,999.95
2018-11-01T10:56:21.500Z,999.98
2018-11-01T10:57:22.324Z,1000.04
2018-11-01T10:59:21.562Z,1000.12
2018-11-01T11:00:21.704Z,1000.23
2018-11-01T11:01:21.584Z,1000.29
2018-11-01T11:02:21.603Z,1000.16
2018-11-01T11:03:21.619Z,1000.19
2018-11-01T11:04:21.641Z,1000.17
2018-11-01T11:05:21.648Z,1000.19
2018-11-01T11:06:21.751Z,1000.22
2018-11-01T11:07:21.689Z,1000.26
2018-11-01T11:08:21.705Z,1000.27
2018-11-01T11:09:21.760Z,1000.26
2018-11-01T11:11:21.775Z,1000.32
2018-11-01T11:12:21.800Z,1000.34
2018-11-01T11:13:21.787Z,1000.30
2018-11-01T11:14:21.821Z,1000.33
2018-11-01T11:15:21.915Z,1000.32
2018-11-01T11:16:21.898Z,1000.30
2018-11-01T11:17:21.875Z,1000.30
2018-11-01T11:18:21.879Z,1000.26
2018-11-01T11:19:21.889Z,1000.26
2018-11-01T11:20:22.247Z,1000.29
2018-11-01T11:21:21.921Z,1000.28
2018-11-01T11:22:21.944Z,1000.30
2018-11-01T11:24:21.976Z,1000.26
2018-11-01T11:25:21.991Z,1000.21
2018-11-01T11:26:22.014Z,1000.25
2018-11-01T11:27:22.083Z,1000.28
2018-11-01T11:28:22.071Z,1000.34
2018-11-01T11:29:22.062Z,1000.37
2018-11-01T11:30:22.210Z,1000.32
2018-11-01T11:31:22.105Z,1000.30
2018-11-01T11:32:22.180Z,1000.26
2018-11-01T11:33:22.114Z,1000.20
2018-11-01T11:34:22.147Z,1000.10
2018-11-01T11:35:22.172Z,1000.07
2018-11-01T11:36:22.167Z,999.97
2018-11-01T11:37:22.260Z,999.90
2018-11-01T11:38:23.905Z,999.91
2018-11-01T11:39:22.256Z,999.93
2018-11-01T11:40:22.241Z,1000.06
2018-11-01T11:41:22.263Z,1000.26
2018-11-01T11:42:22.432Z,1000.39
2018-11-01T11:43:22.306Z,1000.47
2018-11-01T11:44:22.307Z,1000.50
2018-11-01T11:45:22.323Z,1000.50
2018-11-01T11:46:22.332Z,1000.53
2018-11-01T11:47:22.355Z,1000.54
2018-11-01T11:48:22.368Z,1000.60
2018-11-01T11:49:22.401Z,1000.62
2018-11-01T11:50:22.409Z,1000.66
2018-11-01T11:51:22.479Z,1000.65
2018-11-01T11:52:22.445Z,1000.67
2018-11-01T11:53:22.464Z,1000.65
2018-11-01T11:54:22.474Z,1000.60
2018-11-01T11:55:22.487Z,1000.60
2018-11-01T11:56:22.507Z,1000.60
2018-11-01T11:57:22.588Z,1000.65
2018-11-01T11:58:22.541Z,1000.71
2018-11-01T11:59:22.555Z,1000.77
2018-11-01T12:00:22.584Z,1000.75
2018-11-01T12:01:22.589Z,1000.75
2018-11-01T12:02:22.631Z,1000.70
2018-11-01T12:03:22.629Z,1000.71
2018-11-01T12:04:22.644Z,1000.72
2018-11-01T12:05:22.690Z,1000.72
2018-11-01T12:06:22.840Z,1000.75
2018-11-01T12:07:22.684Z,1000.83
2018-11-01T12:08:22.703Z,1000.79
2018-11-01T12:09:22.727Z,1000.78
2018-11-01T12:10:22.734Z,1000.86
2018-11-01T12:11:22.771Z,1000.91
2018-11-01T12:12:22.781Z,1000.87
2018-11-01T12:13:22.791Z,1000.89
2018-11-01T12:14:22.888Z,1000.90
2018-11-01T12:15:22.822Z,1000.92
2018-11-01T12:16:22.852Z,1000.95
2018-11-01T12:17:22.858Z,1000.91
2018-11-01T12:18:22.880Z,1000.93
2018-11-01T12:19:22.919Z,1000.93
2018-11-01T12:20:22.909Z,1000.94
2018-11-01T12:21:22.923Z,1000.97
2018-11-01T12:22:23.028Z,1001.01
2018-11-01T12:23:22.964Z,1000.94